CheckWX is a tool to help pilots better visualize weather data.  It is not intended as a substitute for an official pre-flight weather briefing.

07:49:27 UTC

CYJT TAF
Stephenville Airport
Stephenville, Canada
TAF CYJT 210538Z 2106/2206 28012G22KT 3SM -SHSN BKN015 OVC040 TEMPO 2106/2120 P6SM NSW SCT015 BKN040 FM212000 28010G20KT P6SM -SN BKN030 BECMG 2122/2124 27008KT RMK NXT FCST BY 211200Z

Jan-21@
06:00 UTC

Jan-21 @ 06:00 UTC

Jan-21@
20:00 UTC

Jan-21 @ 20:00 UTC

TAF CYJT 210538Z 2106/2206 28012G22KT 3SM -SHSN BKN015 OVC040
Wind
  • 280° at 12 KTS
  • {Gusting to 22 KTS
Conditions
Light Snow
Cloud Levels
  • Broken at 1,500' AGL
  • Overcast at 4,000' AGL

Jan-21@
06:00 UTC

Jan-21 @ 06:00 UTC

Jan-21@
20:00 UTC

Jan-21 @ 20:00 UTC

TEMPO 2106/2120 P6SM NSW SCT015 BKN040

Temporary

Temporary Changes expected for less than half the time period

Conditions
No significant weather
Cloud Levels
  • Scattered at 1,500' AGL
  • Broken at 4,000' AGL

Jan-21@
20:00 UTC

Jan-21 @ 20:00 UTC

Jan-21@
22:00 UTC

Jan-21 @ 22:00 UTC

FM212000 28010G20KT P6SM -SN BKN030

From

From Standard forecast or significant change

Wind
  • 280° at 10 KTS
  • {Gusting to 20 KTS
Conditions
Light Snow
Cloud Levels
  • Broken at 3,000' AGL

Jan-21@
22:00 UTC

Jan-21 @ 22:00 UTC

Jan-22@
06:00 UTC

Jan-22 @ 06:00 UTC

BECMG 2122/2124 27008KT RMK NXT FCST BY 211200Z

Becoming

Becoming Conditions expected by Wed, Jan 22, 2020 @ 00:00 UTC

Wind
  • 270° at 8 KTS
Conditions
Light Snow
Cloud Levels
  • Broken at 3,000' AGL